Bremerton National Airport Bremerton US
ICAO: KPWT
IATA: PWT
Category: Medium
Scheduled Services: No

Elevation: 444 ft
TransAlt. 18000 ft.

Airport Communications:
SEATTLE APP/DEP:127.1
AWOS 3:121.2
CTAF/UNICOM:123.05

KPWT Zoom In..

Runways:

(A) RW 02 length 6000 ft width 150 ft
---- / hdg 17

(B) RW 20 length 6000 ft width 150 ft
ILS 111.10 / hdg 197

Location; KPWT
Day. 21 / Time. 14.56 Zulu
* Altimeter: 30.08
* Temperature: 11° c. 51.8°f.
* Wind from: 000° Speed 00 kn.
Dewpoint: 09° c.
Visibility: 10 Statute Miles.
Clouds: Overcast 2100 ft.

KPWT 211456Z AUTO 00000KT 10SM OVC021 11/09 A3008 RMK AO2 SLP204 T01110094 53003


Wind - Calm.

 
 
jpsmedia.com for Web Design SOUNDCLOUD worldairports.se 2018   terms of use